San Francisco Bridge — 3FPV6 — position and weather

sailwx.info

Track history (hours):
 
Tides and Currents Weather Stations Pressure Air Temp Water Temp Dewpoint Dewpoint Depression Visibility Wind Speed Wind Dir Waves Ship Positions

San Francisco Bridge

Last reported at 2018-Feb-16 00:10 UTC. Time now 2018-Feb-19 14:20 UTC.
Position N 34°59' E 140°20'.

Length 293 m; draft 13.5 m.

Type: Ship (hazmat cat C). MMSI: 355400000.

Date/timePositionNaut miles runAvg speedWind from/ knotsBaromVisibWave heightAir tempDewpointWater temp
2018-Feb-16 00:10N 34°59' E 140°20'422.7
2018-Feb-15 23:58N 34°56' E 140°15'1021.7
2018-Feb-15 23:30N 34°50' E 140°05'1222.7
2018-Feb-15 23:00N 34°47' E 139°52'1222.8
2018-Feb-15 22:29N 34°55' E 139°41'1020.2
2018-Feb-15 22:00N 35°05' E 139°42'815.8
2018-Feb-15 21:30N 35°12' E 139°46'511.0
2018-Feb-15 21:00N 35°17' E 139°45'713.1
2018-Feb-15 20:30N 35°24' E 139°42'816.2
2018-Feb-15 20:00N 35°29' E 139°50'713.2
2018-Feb-15 19:30N 35°35' E 139°47'2 4.0
2018-Feb-15 19:01N 35°37' E 139°46'0 0.1
2018-Feb-15 18:29N 35°37' E 139°46'0 0.0
2018-Feb-15 17:59N 35°37' E 139°46'0 0.0
2018-Feb-15 17:29N 35°37' E 139°46'0 0.0
2018-Feb-15 16:53N 35°37' E 139°46'0 0.0
2018-Feb-15 16:29N 35°37' E 139°46'0 0.0
2018-Feb-15 15:53N 35°37' E 139°46'0 0.0
2018-Feb-15 15:29N 35°37' E 139°46'0 0.0
2018-Feb-15 14:59N 35°37' E 139°46'0 0.0
2018-Feb-15 14:26N 35°37' E 139°46'0 0.0
2018-Feb-15 13:56N 35°37' E 139°46'0 0.0
2018-Feb-15 13:26N 35°37' E 139°46'0 0.0
2018-Feb-15 12:59N 35°37' E 139°46'0 0.0
2018-Feb-15 12:29N 35°37' E 139°46'0 0.0
2018-Feb-15 11:59N 35°37' E 139°46'0 0.0
2018-Feb-15 11:26N 35°37' E 139°46'0 0.0
2018-Feb-15 10:56N 35°37' E 139°46'0 0.0
2018-Feb-15 10:29N 35°37' E 139°46'0 0.0
2018-Feb-15 09:59N 35°37' E 139°46'0 0.0
2018-Feb-15 09:23N 35°37' E 139°46'0 0.6
2018-Feb-15 09:00N 35°36' E 139°46'4 7.6
2018-Feb-15 08:30N 35°34' E 139°49'510.5
2018-Feb-15 08:01N 35°29' E 139°51'714.0
2018-Feb-15 07:30N 35°23' E 139°46'612.3
2018-Feb-15 07:00N 35°17' E 139°45'612.5
2018-Feb-15 06:30N 35°11' E 139°47'510.2
2018-Feb-15 06:01N 35°06' E 139°45'612.5
2018-Feb-15 05:30N 35°00' E 139°42'612.9
2018-Feb-15 05:00N 34°54' E 139°41'612.6
2018-Feb-15 04:30N 34°48' E 139°38'816.3
2018-Feb-15 04:00N 34°42' E 139°32'1218.5
2018-Feb-15 03:22N 34°36' E 139°19'820.2
2018-Feb-15 02:58N 34°32' E 139°10'920.4
2018-Feb-15 02:30N 34°28' E 139°00'1019.7
2018-Feb-15 02:00N 34°26' E 138°49'1020.7
2018-Feb-15 01:30N 34°26' E 138°36'1020.1
2018-Feb-15 01:00N 34°27' E 138°24'1020.4
2018-Feb-15 00:30N 34°27' E 138°11'1120.5
2018-Feb-14 23:58N 34°26' E 137°58'919.1
2018-Feb-14 23:30N 34°26' E 137°47'1019.3
2018-Feb-14 22:59N 34°27' E 137°35'1119.9
2018-Feb-14 22:25N 34°27' E 137°21'819.4
2018-Feb-14 22:00N 34°28' E 137°12'816.8
2018-Feb-14 21:30N 34°32' E 137°03'611.1
2018-Feb-14 21:00N 34°35' E 136°58'714.8
2018-Feb-14 20:30N 34°40' E 136°50'815.4
2018-Feb-14 20:00N 34°46' E 136°46'816.2
2018-Feb-14 19:30N 34°55' E 136°46'713.3
2018-Feb-14 19:01N 35°00' E 136°50'1 2.4
2018-Feb-14 18:30N 35°02' E 136°50'0 0.2
2018-Feb-14 18:00N 35°02' E 136°49'0 0.0
2018-Feb-14 17:30N 35°02' E 136°49'0 0.0
2018-Feb-14 17:00N 35°02' E 136°49'0 0.0
2018-Feb-14 16:30N 35°02' E 136°49'0 0.0
2018-Feb-14 16:00N 35°02' E 136°49'0 0.0
2018-Feb-14 15:30N 35°02' E 136°49'0 0.0
2018-Feb-14 15:00N 35°02' E 136°49'0 0.0
2018-Feb-14 14:30N 35°02' E 136°49'0 0.0
2018-Feb-14 14:00N 35°02' E 136°49'0 0.0
2018-Feb-14 13:30N 35°02' E 136°49'0 0.0
2018-Feb-14 13:00N 35°02' E 136°49'0 0.0
2018-Feb-14 12:30N 35°02' E 136°49'0 0.0
2018-Feb-14 12:00N 35°02' E 136°49'0 0.0
2018-Feb-14 11:30N 35°02' E 136°49'0 0.0
2018-Feb-14 11:00N 35°02' E 136°49'0 0.3
2018-Feb-14 10:30N 35°02' E 136°50'3 5.7
2018-Feb-14 10:00N 34°59' E 136°49'510.5
2018-Feb-14 09:30N 34°54' E 136°46'612.1
2018-Feb-14 09:01N 34°48' E 136°47'917.9
2018-Feb-14 08:30N 34°40' E 136°52'817.1
2018-Feb-14 08:01N 34°34' E 136°60'611.7
2018-Feb-14 07:30N 34°29' E 137°03'510.8
2018-Feb-14 07:00N 34°24' E 137°04'3019.1
2018-Feb-14 05:25N 33°57' E 136°48'75220.9
2018-Feb-12 17:29N 31°06' E 122°19'613.5
2018-Feb-12 17:00N 31°10' E 122°12'612.6
2018-Feb-12 16:30N 31°13' E 122°06'612.6
2018-Feb-12 16:00N 31°15' E 121°59'611.8
2018-Feb-12 15:29N 31°16' E 121°52'611.5
2018-Feb-12 15:00N 31°18' E 121°46'510.5
2018-Feb-12 14:30N 31°20' E 121°41'5 9.2
2018-Feb-12 14:00N 31°23' E 121°36'1 1.2
2018-Feb-12 13:03N 31°23' E 121°35'0 0.0
2018-Feb-12 12:51N 31°23' E 121°35'0 0.0
2018-Feb-12 12:21N 31°23' E 121°35'0 0.0
2018-Feb-12 11:57N 31°23' E 121°35'0 0.0
2018-Feb-12 11:27N 31°23' E 121°35'0 0.0
2018-Feb-12 10:51N 31°23' E 121°35'0 0.0
2018-Feb-12 10:21N 31°23' E 121°35'0 0.0
2018-Feb-12 09:51N 31°23' E 121°35'0 0.0
2018-Feb-12 09:21N 31°23' E 121°35'0 0.0
2018-Feb-12 08:51N 31°23' E 121°35'0 0.0
2018-Feb-12 07:57N 31°23' E 121°35'0 0.0
2018-Feb-12 06:09N 31°23' E 121°35'0 0.0
2018-Feb-12 05:45N 31°23' E 121°35'0 0.0
2018-Feb-12 05:03N 31°23' E 121°35'0 0.0
2018-Feb-12 01:09N 31°23' E 121°35'0 0.0
2018-Feb-12 00:33N 31°23' E 121°35'0 0.0
2018-Feb-11 20:45N 31°23' E 121°35'0 0.0
2018-Feb-11 16:03N 31°23' E 121°35'0 0.0
2018-Feb-11 15:51N 31°23' E 121°35'0 0.0
2018-Feb-11 14:28N 31°23' E 121°35'1 1.7
2018-Feb-11 14:00N 31°23' E 121°34'4 7.7
2018-Feb-11 13:29N 31°22' E 121°39'510.0
2018-Feb-11 13:00N 31°19' E 121°44'510.0
2018-Feb-11 12:30N 31°17' E 121°49'5 9.8
2018-Feb-11 12:00N 31°16' E 121°54'5 9.3
2018-Feb-11 11:30N 31°15' E 121°60'5 9.9
2018-Feb-11 11:00N 31°14' E 122°05'5 9.7
2018-Feb-11 10:30N 31°11' E 122°10'5 9.6
2018-Feb-11 10:00N 31°08' E 122°15'4 8.4
2018-Feb-11 09:30N 31°06' E 122°19'5 9.2
2018-Feb-11 09:00N 31°06' E 122°24'2 4.8
2018-Feb-11 08:30N 31°08' E 122°27'5 9.5
2018-Feb-11 07:58N 31°13' E 122°26'  
2018-Feb-07 05:07N 33°46' E 134°51'323.1
2018-Feb-07 05:00N 33°49' E 134°52'2121.4
2018-Feb-07 04:00N 34°10' E 134°58'611.7
2018-Feb-07 03:30N 34°15' E 134°58'2914.4
2018-Feb-07 01:30N 34°41' E 135°15'0 0.6
2018-Feb-07 01:00N 34°41' E 135°16'0 0.0
2018-Feb-07 00:00N 34°41' E 135°16'0 0.0
2018-Feb-06 23:30N 34°41' E 135°16'0 0.0
2018-Feb-06 23:00N 34°41' E 135°16'0 0.0
2018-Feb-06 22:30N 34°41' E 135°16'0 0.0
2018-Feb-06 22:00N 34°41' E 135°16'0 0.0
2018-Feb-06 21:30N 34°41' E 135°16'0 0.0
2018-Feb-06 21:00N 34°41' E 135°16'0 0.0
2018-Feb-06 20:30N 34°41' E 135°16'0 0.0
2018-Feb-06 20:00N 34°41' E 135°16'0 0.0
2018-Feb-06 19:30N 34°41' E 135°16'0 0.0
2018-Feb-06 19:00N 34°41' E 135°16'0 0.0
2018-Feb-06 18:30N 34°41' E 135°16'0 0.0
2018-Feb-06 18:00N 34°41' E 135°16'0 0.0
2018-Feb-06 17:30N 34°41' E 135°16'0 0.0
2018-Feb-06 17:00N 34°41' E 135°16'0 0.0
2018-Feb-06 16:30N 34°41' E 135°16'0 0.0
2018-Feb-06 15:00N 34°41' E 135°16'0 0.0
2018-Feb-06 14:27N 34°41' E 135°16'0 0.0
2018-Feb-06 14:00N 34°41' E 135°16'0 0.0
2018-Feb-06 13:30N 34°41' E 135°16'0 0.0
2018-Feb-06 12:00N 34°41' E 135°16'0 0.0
2018-Feb-06 11:30N 34°41' E 135°16'0 0.0
2018-Feb-06 10:30N 34°41' E 135°16'0 0.0
2018-Feb-06 09:30N 34°41' E 135°16'0 0.4
2018-Feb-06 09:00N 34°41' E 135°16'1 2.0
2018-Feb-06 08:30N 34°41' E 135°17'3 5.4
2018-Feb-06 08:00N 34°38' E 135°18'2415.7
2018-Feb-06 06:30N 34°19' E 135°01'1313.3
2018-Feb-06 05:30N 34°06' E 134°60'3316.4
2018-Feb-06 03:29N 33°34' E 135°11'1018.2
2018-Feb-06 02:56N 33°26' E 135°17'  
Track history (hours):
 
Tides and Currents Weather Stations Pressure Air Temp Water Temp Dewpoint Dewpoint Depression Visibility Wind Speed Wind Dir Waves Ship Positions

San Francisco Bridge

Last reported at 2018-Feb-16 00:10 UTC. Time now 2018-Feb-19 14:20 UTC.
Position N 34°59' E 140°20'.

Length 293 m; draft 13.5 m.

Type: Ship (hazmat cat C). MMSI: 355400000.

Date/timePositionNaut miles runAvg speedWind from/ knotsBaromVisibWave heightAir tempDewpointWater temp
2018-Feb-16 00:10N 34°59' E 140°20'422.7
2018-Feb-15 23:58N 34°56' E 140°15'1021.7
2018-Feb-15 23:30N 34°50' E 140°05'1222.7
2018-Feb-15 23:00N 34°47' E 139°52'1222.8
2018-Feb-15 22:29N 34°55' E 139°41'1020.2
2018-Feb-15 22:00N 35°05' E 139°42'815.8
2018-Feb-15 21:30N 35°12' E 139°46'511.0
2018-Feb-15 21:00N 35°17' E 139°45'713.1
2018-Feb-15 20:30N 35°24' E 139°42'816.2
2018-Feb-15 20:00N 35°29' E 139°50'713.2
2018-Feb-15 19:30N 35°35' E 139°47'2 4.0
2018-Feb-15 19:01N 35°37' E 139°46'0 0.1
2018-Feb-15 18:29N 35°37' E 139°46'0 0.0
2018-Feb-15 17:59N 35°37' E 139°46'0 0.0
2018-Feb-15 17:29N 35°37' E 139°46'0 0.0
2018-Feb-15 16:53N 35°37' E 139°46'0 0.0
2018-Feb-15 16:29N 35°37' E 139°46'0 0.0
2018-Feb-15 15:53N 35°37' E 139°46'0 0.0
2018-Feb-15 15:29N 35°37' E 139°46'0 0.0
2018-Feb-15 14:59N 35°37' E 139°46'0 0.0
2018-Feb-15 14:26N 35°37' E 139°46'0 0.0
2018-Feb-15 13:56N 35°37' E 139°46'0 0.0
2018-Feb-15 13:26N 35°37' E 139°46'0 0.0
2018-Feb-15 12:59N 35°37' E 139°46'0 0.0
2018-Feb-15 12:29N 35°37' E 139°46'0 0.0
2018-Feb-15 11:59N 35°37' E 139°46'0 0.0
2018-Feb-15 11:26N 35°37' E 139°46'0 0.0
2018-Feb-15 10:56N 35°37' E 139°46'0 0.0
2018-Feb-15 10:29N 35°37' E 139°46'0 0.0
2018-Feb-15 09:59N 35°37' E 139°46'0 0.0
2018-Feb-15 09:23N 35°37' E 139°46'0 0.6
2018-Feb-15 09:00N 35°36' E 139°46'4 7.6
2018-Feb-15 08:30N 35°34' E 139°49'510.5
2018-Feb-15 08:01N 35°29' E 139°51'714.0
2018-Feb-15 07:30N 35°23' E 139°46'612.3
2018-Feb-15 07:00N 35°17' E 139°45'612.5
2018-Feb-15 06:30N 35°11' E 139°47'510.2
2018-Feb-15 06:01N 35°06' E 139°45'612.5
2018-Feb-15 05:30N 35°00' E 139°42'612.9
2018-Feb-15 05:00N 34°54' E 139°41'612.6
2018-Feb-15 04:30N 34°48' E 139°38'816.3
2018-Feb-15 04:00N 34°42' E 139°32'1218.5
2018-Feb-15 03:22N 34°36' E 139°19'820.2
2018-Feb-15 02:58N 34°32' E 139°10'920.4
2018-Feb-15 02:30N 34°28' E 139°00'1019.7
2018-Feb-15 02:00N 34°26' E 138°49'1020.7
2018-Feb-15 01:30N 34°26' E 138°36'1020.1
2018-Feb-15 01:00N 34°27' E 138°24'1020.4
2018-Feb-15 00:30N 34°27' E 138°11'1120.5
2018-Feb-14 23:58N 34°26' E 137°58'919.1
2018-Feb-14 23:30N 34°26' E 137°47'1019.3
2018-Feb-14 22:59N 34°27' E 137°35'1119.9
2018-Feb-14 22:25N 34°27' E 137°21'819.4
2018-Feb-14 22:00N 34°28' E 137°12'816.8
2018-Feb-14 21:30N 34°32' E 137°03'611.1
2018-Feb-14 21:00N 34°35' E 136°58'714.8
2018-Feb-14 20:30N 34°40' E 136°50'815.4
2018-Feb-14 20:00N 34°46' E 136°46'816.2
2018-Feb-14 19:30N 34°55' E 136°46'713.3
2018-Feb-14 19:01N 35°00' E 136°50'1 2.4
2018-Feb-14 18:30N 35°02' E 136°50'0 0.2
2018-Feb-14 18:00N 35°02' E 136°49'0 0.0
2018-Feb-14 17:30N 35°02' E 136°49'0 0.0
2018-Feb-14 17:00N 35°02' E 136°49'0 0.0
2018-Feb-14 16:30N 35°02' E 136°49'0 0.0
2018-Feb-14 16:00N 35°02' E 136°49'0 0.0
2018-Feb-14 15:30N 35°02' E 136°49'0 0.0
2018-Feb-14 15:00N 35°02' E 136°49'0 0.0
2018-Feb-14 14:30N 35°02' E 136°49'0 0.0
2018-Feb-14 14:00N 35°02' E 136°49'0 0.0
2018-Feb-14 13:30N 35°02' E 136°49'0 0.0
2018-Feb-14 13:00N 35°02' E 136°49'0 0.0
2018-Feb-14 12:30N 35°02' E 136°49'0 0.0
2018-Feb-14 12:00N 35°02' E 136°49'0 0.0
2018-Feb-14 11:30N 35°02' E 136°49'0 0.0
2018-Feb-14 11:00N 35°02' E 136°49'0 0.3
2018-Feb-14 10:30N 35°02' E 136°50'3 5.7
2018-Feb-14 10:00N 34°59' E 136°49'510.5
2018-Feb-14 09:30N 34°54' E 136°46'612.1
2018-Feb-14 09:01N 34°48' E 136°47'917.9
2018-Feb-14 08:30N 34°40' E 136°52'817.1
2018-Feb-14 08:01N 34°34' E 136°60'611.7
2018-Feb-14 07:30N 34°29' E 137°03'510.8
2018-Feb-14 07:00N 34°24' E 137°04'3019.1
2018-Feb-14 05:25N 33°57' E 136°48'75220.9
2018-Feb-12 17:29N 31°06' E 122°19'613.5
2018-Feb-12 17:00N 31°10' E 122°12'612.6
2018-Feb-12 16:30N 31°13' E 122°06'612.6
2018-Feb-12 16:00N 31°15' E 121°59'611.8
2018-Feb-12 15:29N 31°16' E 121°52'611.5
2018-Feb-12 15:00N 31°18' E 121°46'510.5
2018-Feb-12 14:30N 31°20' E 121°41'5 9.2
2018-Feb-12 14:00N 31°23' E 121°36'1 1.2
2018-Feb-12 13:03N 31°23' E 121°35'0 0.0
2018-Feb-12 12:51N 31°23' E 121°35'0 0.0
2018-Feb-12 12:21N 31°23' E 121°35'0 0.0
2018-Feb-12 11:57N 31°23' E 121°35'0 0.0
2018-Feb-12 11:27N 31°23' E 121°35'0 0.0
2018-Feb-12 10:51N 31°23' E 121°35'0 0.0
2018-Feb-12 10:21N 31°23' E 121°35'0 0.0
2018-Feb-12 09:51N 31°23' E 121°35'0 0.0
2018-Feb-12 09:21N 31°23' E 121°35'0 0.0
2018-Feb-12 08:51N 31°23' E 121°35'0 0.0
2018-Feb-12 07:57N 31°23' E 121°35'0 0.0
2018-Feb-12 06:09N 31°23' E 121°35'0 0.0
2018-Feb-12 05:45N 31°23' E 121°35'0 0.0
2018-Feb-12 05:03N 31°23' E 121°35'0 0.0
2018-Feb-12 01:09N 31°23' E 121°35'0 0.0
2018-Feb-12 00:33N 31°23' E 121°35'0 0.0
2018-Feb-11 20:45N 31°23' E 121°35'0 0.0
2018-Feb-11 16:03N 31°23' E 121°35'0 0.0
2018-Feb-11 15:51N 31°23' E 121°35'0 0.0
2018-Feb-11 14:28N 31°23' E 121°35'1 1.7
2018-Feb-11 14:00N 31°23' E 121°34'4 7.7
2018-Feb-11 13:29N 31°22' E 121°39'510.0
2018-Feb-11 13:00N 31°19' E 121°44'510.0
2018-Feb-11 12:30N 31°17' E 121°49'5 9.8
2018-Feb-11 12:00N 31°16' E 121°54'5 9.3
2018-Feb-11 11:30N 31°15' E 121°60'5 9.9
2018-Feb-11 11:00N 31°14' E 122°05'5 9.7
2018-Feb-11 10:30N 31°11' E 122°10'5 9.6
2018-Feb-11 10:00N 31°08' E 122°15'4 8.4
2018-Feb-11 09:30N 31°06' E 122°19'5 9.2
2018-Feb-11 09:00N 31°06' E 122°24'2 4.8
2018-Feb-11 08:30N 31°08' E 122°27'5 9.5
2018-Feb-11 07:58N 31°13' E 122°26'  
2018-Feb-07 05:07N 33°46' E 134°51'323.1
2018-Feb-07 05:00N 33°49' E 134°52'2121.4
2018-Feb-07 04:00N 34°10' E 134°58'611.7
2018-Feb-07 03:30N 34°15' E 134°58'2914.4
2018-Feb-07 01:30N 34°41' E 135°15'0 0.6
2018-Feb-07 01:00N 34°41' E 135°16'0 0.0
2018-Feb-07 00:00N 34°41' E 135°16'0 0.0
2018-Feb-06 23:30N 34°41' E 135°16'0 0.0
2018-Feb-06 23:00N 34°41' E 135°16'0 0.0
2018-Feb-06 22:30N 34°41' E 135°16'0 0.0
2018-Feb-06 22:00N 34°41' E 135°16'0 0.0
2018-Feb-06 21:30N 34°41' E 135°16'0 0.0
2018-Feb-06 21:00N 34°41' E 135°16'0 0.0
2018-Feb-06 20:30N 34°41' E 135°16'0 0.0
2018-Feb-06 20:00N 34°41' E 135°16'0 0.0
2018-Feb-06 19:30N 34°41' E 135°16'0 0.0
2018-Feb-06 19:00N 34°41' E 135°16'0 0.0
2018-Feb-06 18:30N 34°41' E 135°16'0 0.0
2018-Feb-06 18:00N 34°41' E 135°16'0 0.0
2018-Feb-06 17:30N 34°41' E 135°16'0 0.0
2018-Feb-06 17:00N 34°41' E 135°16'0 0.0
2018-Feb-06 16:30N 34°41' E 135°16'0 0.0
2018-Feb-06 15:00N 34°41' E 135°16'0 0.0
2018-Feb-06 14:27N 34°41' E 135°16'0 0.0
2018-Feb-06 14:00N 34°41' E 135°16'0 0.0
2018-Feb-06 13:30N 34°41' E 135°16'0 0.0
2018-Feb-06 12:00N 34°41' E 135°16'0 0.0
2018-Feb-06 11:30N 34°41' E 135°16'0 0.0
2018-Feb-06 10:30N 34°41' E 135°16'0 0.0
2018-Feb-06 09:30N 34°41' E 135°16'0 0.4
2018-Feb-06 09:00N 34°41' E 135°16'1 2.0
2018-Feb-06 08:30N 34°41' E 135°17'3 5.4
2018-Feb-06 08:00N 34°38' E 135°18'2415.7
2018-Feb-06 06:30N 34°19' E 135°01'1313.3
2018-Feb-06 05:30N 34°06' E 134°60'3316.4
2018-Feb-06 03:29N 33°34' E 135°11'1018.2
2018-Feb-06 02:56N 33°26' E 135°17'  

Dump ship's entire track history